Whittemore, MI (48770)

3:44 PM EDT on April 21, 2015 (GMT -0400)
RAWS | | Change Station
CLOSE
Current Station
Personal Weather Station
Location: National City, MI
Elevation: 704 ft
Nearby Weather Stations

Elev 704 ft 44.38 °N, 83.60 °W | Updated 42 minutes ago

Rain
Rain
43 °F
Feels Like 39 °F
N
7
Wind Variable Wind from West
Gusts 20.0 mph

Today
High -- | Low -- °F
--% Chance of Precip.
Yesterday
High -- | Low -- °F
Precip. -- in
6:42 AM 8:26 PM
Waxing Crescent, 12% visible
Pressure 29.43 in
Visibility 7.0 miles
Clouds Scattered Clouds 2800 ft
Mostly Cloudy 3900 ft
Mostly Cloudy 4700 ft
Windchill 39 °F
Dew Point 38 °F
Humidity 83%
Rainfall in
Snow Depth Not available.
UV 4 out of 12
Pollen 7.90 out of 12
Air Quality Not available.
Flu Activity Regional
METAR KOSC 211933Z AUTO 22013G16KT 7SM -RA SCT028 BKN039 BKN047 06/02 A2943 RMK AO2 T00620024

More Conditions Fewer Conditions

Pressure 29.43 in
Visibility 7.0 miles
Clouds Scattered Clouds 2800 ft
Mostly Cloudy 3900 ft
Mostly Cloudy 4700 ft
Windchill 39 °F
Dew Point 38 °F
Humidity 83%
Rainfall in
Snow Depth Not available.
UV 4 out of 12
Pollen 7.90 out of 12
Air Quality Not available.
Flu Activity Regional
METAR KOSC 211933Z AUTO 22013G16KT 7SM -RA SCT028 BKN039 BKN047 06/02 A2943 RMK AO2 T00620024

More Conditions Fewer Conditions

Nowcast | as of 3:00 PM EDT on April 21, 2015

At 4 PM...numerous showers. Temperature 45. Southwest winds 17 mph with gusts to 30 mph. At 6 PM...mostly cloudy. Scattered showers. Temperature 44. Southwest winds 17 mph. At 8 PM...mostly cloudy. Temperature 42. Southwest winds 15 mph. At 10 PM...mostly cloudy. Temperature 39. Southwest winds 11 mph.

×

10-Day Weather Forecast

Almanac

Astronomy

Apr. 21, 2015 Rise Set
Actual Time
Civil Twilight
Nautical Twilight
Astronomical Twilight
Moon
Length of Visible Light
Length of Day
Tomorrow will be .
, % of the Moon is Illuminated

Today's Extremes

State Highs State Lows

Community

WunderPhotos

Upload Photos

1,815,523 photos uploaded!

WunderBlogs® & News

Nearby

Air Quality

  Air Quality AQ Index Pollutant
Not available.

Snow Depth

Station Depth Elevation

Earthquake Activity

City Distance Mag. Time & Date
Minimum magnitude displayed is 2.5.

Coastal Water Temperatures

Place Temperature

Stations

Nearby Weather Stations

Station Location Temp. Windchill Dew Point Humidity Wind Precip. Elev Updated Type